createdAt,value
2023-01-21T00:00:23.017Z,6.66
2023-01-21T00:02:49.661Z,6.63
2023-01-21T00:05:16.341Z,6.63
2023-01-21T00:07:43.009Z,6.68
2023-01-21T00:10:10.282Z,6.66
2023-01-21T00:12:38.011Z,6.59
2023-01-21T00:15:05.068Z,6.57
2023-01-21T00:17:35.842Z,6.49
2023-01-21T00:20:04.074Z,6.40
2023-01-21T00:22:30.873Z,6.31
2023-01-21T00:24:57.545Z,6.34
2023-01-21T00:27:24.338Z,6.41
2023-01-21T00:29:51.001Z,6.31
2023-01-21T00:32:17.714Z,6.21
2023-01-21T00:34:44.393Z,5.96
2023-01-21T00:37:11.093Z,5.89
2023-01-21T00:39:42.645Z,5.87
2023-01-21T00:42:11.174Z,5.79
2023-01-21T00:44:38.554Z,5.71
2023-01-21T00:47:05.960Z,5.70
2023-01-21T00:49:32.719Z,5.76
2023-01-21T00:51:59.703Z,5.83
2023-01-21T00:54:26.350Z,5.84
2023-01-21T00:56:52.994Z,5.88
2023-01-21T00:59:19.800Z,5.88
2023-01-21T01:01:46.439Z,5.91
2023-01-21T01:04:13.491Z,5.95
2023-01-21T01:06:40.407Z,6.03
2023-01-21T01:09:07.588Z,6.00
2023-01-21T01:11:34.225Z,5.99
2023-01-21T01:14:00.881Z,5.99
2023-01-21T01:16:27.713Z,6.00
2023-01-21T01:18:55.716Z,6.04
2023-01-21T01:21:22.946Z,6.08
2023-01-21T01:23:52.333Z,6.18
2023-01-21T01:26:21.077Z,6.22
2023-01-21T01:28:48.397Z,6.35
2023-01-21T01:31:17.841Z,6.34
2023-01-21T01:33:45.340Z,6.28
2023-01-21T01:36:15.090Z,6.29
2023-01-21T01:38:42.548Z,6.30
2023-01-21T01:41:15.007Z,6.20
2023-01-21T01:43:55.752Z,6.17
2023-01-21T01:46:23.674Z,6.13
2023-01-21T01:49:06.853Z,6.14
2023-01-21T01:51:42.741Z,6.23
2023-01-21T01:54:11.991Z,6.25
2023-01-21T01:56:43.282Z,6.26
2023-01-21T01:59:10.550Z,6.29
2023-01-21T02:01:37.811Z,6.26
2023-01-21T02:04:10.131Z,6.17
2023-01-21T02:06:38.463Z,6.16
2023-01-21T02:09:05.502Z,6.01
2023-01-21T02:11:32.232Z,5.90
2023-01-21T02:13:59.887Z,5.85
2023-01-21T02:16:46.251Z,5.73
2023-01-21T02:19:31.667Z,5.73
2023-01-21T02:22:04.448Z,5.84
2023-01-21T02:24:49.788Z,5.90
2023-01-21T02:27:49.983Z,5.86
2023-01-21T02:30:46.561Z,5.65
2023-01-21T02:33:25.301Z,5.70
2023-01-21T02:36:26.167Z,5.70
2023-01-21T02:39:26.719Z,5.76
2023-01-21T02:42:27.308Z,5.77
2023-01-21T02:45:05.552Z,5.68
2023-01-21T02:48:06.339Z,5.65
2023-01-21T02:50:54.539Z,5.77
2023-01-21T02:53:27.681Z,5.84
2023-01-21T02:55:56.150Z,5.78
2023-01-21T02:58:28.980Z,5.78
2023-01-21T03:01:03.872Z,5.65
2023-01-21T03:03:57.999Z,5.72
2023-01-21T03:06:38.955Z,5.68
2023-01-21T03:09:15.009Z,5.71
2023-01-21T03:11:49.246Z,5.74
2023-01-21T03:14:41.912Z,5.62
2023-01-21T03:17:16.996Z,5.35
2023-01-21T03:19:53.796Z,5.50
2023-01-21T03:22:26.081Z,5.39
2023-01-21T03:24:55.678Z,5.43
2023-01-21T03:27:26.913Z,5.37
2023-01-21T03:29:58.812Z,5.24
2023-01-21T03:32:28.688Z,5.30
2023-01-21T03:34:56.865Z,5.22
2023-01-21T03:37:46.811Z,5.24
2023-01-21T03:40:27.509Z,5.04
2023-01-21T03:42:56.307Z,4.91
2023-01-21T03:45:50.680Z,5.23
2023-01-21T03:49:19.118Z,5.26
2023-01-21T03:51:51.438Z,5.32
2023-01-21T03:54:18.302Z,5.36
2023-01-21T03:56:44.989Z,5.20
2023-01-21T03:59:11.647Z,4.99
2023-01-21T04:01:39.536Z,5.23
2023-01-21T04:04:06.481Z,5.26
2023-01-21T04:06:33.614Z,5.15
2023-01-21T04:09:00.353Z,5.09
2023-01-21T04:11:26.962Z,5.09
2023-01-21T04:13:53.607Z,5.12
2023-01-21T04:16:20.339Z,5.03
2023-01-21T04:18:47.678Z,4.88
2023-01-21T04:21:14.839Z,4.74
2023-01-21T04:23:41.523Z,4.47
2023-01-21T04:26:08.231Z,4.13
2023-01-21T04:28:34.910Z,4.02
2023-01-21T04:31:01.698Z,4.15
2023-01-21T04:33:28.423Z,4.05
2023-01-21T04:36:01.153Z,3.73
2023-01-21T04:38:27.927Z,3.87
2023-01-21T04:40:54.571Z,3.82
2023-01-21T04:43:21.457Z,3.83
2023-01-21T04:45:49.994Z,3.87
2023-01-21T04:48:17.669Z,3.76
2023-01-21T04:50:45.743Z,3.80
2023-01-21T04:53:12.453Z,3.73
2023-01-21T04:55:39.117Z,3.85
2023-01-21T04:58:06.006Z,3.60
2023-01-21T05:00:32.670Z,3.60
2023-01-21T05:02:59.335Z,3.71
2023-01-21T05:05:25.998Z,3.75
2023-01-21T05:07:54.003Z,3.80
2023-01-21T05:10:21.204Z,3.77
2023-01-21T05:12:48.556Z,3.84
2023-01-21T05:15:15.431Z,3.93
2023-01-21T05:17:42.508Z,3.81
2023-01-21T05:20:09.975Z,4.04
2023-01-21T05:22:36.660Z,4.09
2023-01-21T05:25:03.806Z,3.97
2023-01-21T05:27:30.514Z,3.91
2023-01-21T05:29:57.305Z,4.00
2023-01-21T05:32:24.243Z,3.68
2023-01-21T05:34:50.951Z,3.73
2023-01-21T05:37:17.718Z,3.84
2023-01-21T05:39:44.627Z,3.74
2023-01-21T05:42:11.246Z,3.66
2023-01-21T05:44:37.927Z,3.78
2023-01-21T05:47:04.738Z,3.68
2023-01-21T05:49:31.432Z,3.48
2023-01-21T05:51:58.054Z,3.63
2023-01-21T05:54:24.804Z,3.63
2023-01-21T05:56:51.565Z,3.77
2023-01-21T05:59:18.187Z,3.54
2023-01-21T06:01:44.848Z,3.42
2023-01-21T06:04:11.487Z,3.55
2023-01-21T06:06:38.160Z,3.62
2023-01-21T06:09:04.852Z,3.65
2023-01-21T06:11:31.548Z,3.36
2023-01-21T06:13:58.388Z,3.47
2023-01-21T06:16:24.986Z,3.55
2023-01-21T06:18:51.620Z,3.53
2023-01-21T06:21:18.207Z,3.58
2023-01-21T06:23:44.887Z,3.48
2023-01-21T06:26:11.531Z,3.29
2023-01-21T06:28:38.224Z,3.36
2023-01-21T06:31:05.053Z,3.32
2023-01-21T06:33:31.759Z,3.16
2023-01-21T06:35:58.442Z,3.17
2023-01-21T06:38:25.097Z,3.36
2023-01-21T06:40:51.738Z,3.16
2023-01-21T06:43:18.581Z,3.03
2023-01-21T06:45:45.354Z,3.03
2023-01-21T06:48:11.935Z,3.15
2023-01-21T06:50:38.718Z,3.10
2023-01-21T06:53:05.349Z,2.86
2023-01-21T06:55:32.010Z,3.02
2023-01-21T06:57:58.682Z,3.09
2023-01-21T07:00:25.346Z,3.03
2023-01-21T07:02:59.361Z,3.25
2023-01-21T07:05:26.922Z,2.98
2023-01-21T07:07:55.722Z,3.04
2023-01-21T07:10:23.612Z,2.87
2023-01-21T07:12:50.583Z,3.02
2023-01-21T07:15:17.647Z,2.78
2023-01-21T07:17:44.693Z,2.97
2023-01-21T07:20:14.345Z,3.09
2023-01-21T07:22:40.944Z,3.04
2023-01-21T07:25:08.015Z,2.87
2023-01-21T07:27:34.635Z,2.91
2023-01-21T07:30:01.403Z,2.90
2023-01-21T07:32:28.184Z,2.90
2023-01-21T07:34:54.819Z,3.00
2023-01-21T07:37:21.418Z,3.07
2023-01-21T07:39:48.040Z,3.08
2023-01-21T07:42:14.729Z,3.15
2023-01-21T07:44:42.688Z,3.12
2023-01-21T07:47:10.468Z,3.12
2023-01-21T07:49:37.535Z,3.10
2023-01-21T07:52:04.436Z,3.23
2023-01-21T07:54:31.068Z,3.29
2023-01-21T07:56:58.073Z,3.33
2023-01-21T07:59:24.775Z,3.32
2023-01-21T08:01:51.692Z,3.39
2023-01-21T08:04:18.418Z,3.41
2023-01-21T08:06:45.126Z,3.47
2023-01-21T08:09:11.828Z,3.38
2023-01-21T08:11:38.506Z,3.42
2023-01-21T08:14:05.661Z,3.37
2023-01-21T08:16:32.355Z,3.45
2023-01-21T08:18:59.193Z,3.48
2023-01-21T08:21:26.202Z,3.55
2023-01-21T08:23:52.846Z,3.20
2023-01-21T08:26:19.553Z,3.11
2023-01-21T08:28:46.153Z,3.35
2023-01-21T08:31:13.648Z,3.35
2023-01-21T08:33:40.728Z,3.37
2023-01-21T08:36:08.626Z,3.55
2023-01-21T08:38:35.783Z,3.75
2023-01-21T08:41:02.430Z,3.91
2023-01-21T08:43:29.453Z,3.95
2023-01-21T08:45:57.261Z,3.98
2023-01-21T08:48:24.262Z,3.99
2023-01-21T08:50:51.038Z,4.07
2023-01-21T08:53:17.841Z,3.97
2023-01-21T08:55:44.593Z,3.95
2023-01-21T08:58:11.984Z,3.81
2023-01-21T09:00:38.780Z,3.81
2023-01-21T09:03:05.425Z,3.83
2023-01-21T09:05:32.153Z,3.98
2023-01-21T09:07:58.926Z,3.90
2023-01-21T09:10:48.916Z,3.83
2023-01-21T09:13:16.266Z,3.81
2023-01-21T09:15:43.795Z,3.99
2023-01-21T09:18:11.540Z,4.16
2023-01-21T09:20:39.748Z,4.06
2023-01-21T09:23:26.625Z,4.12
2023-01-21T09:26:07.763Z,4.31
2023-01-21T09:28:37.536Z,4.47
2023-01-21T09:31:06.706Z,4.39
2023-01-21T09:33:36.431Z,4.42
2023-01-21T09:36:06.167Z,4.50
2023-01-21T09:38:33.790Z,4.74
2023-01-21T09:41:18.885Z,4.87
2023-01-21T09:44:27.425Z,4.95
2023-01-21T09:47:09.068Z,4.98
2023-01-21T09:49:43.573Z,5.15
2023-01-21T09:52:42.943Z,5.38
2023-01-21T09:55:15.687Z,5.55
2023-01-21T09:58:24.006Z,5.83
2023-01-21T10:01:10.685Z,6.00
2023-01-21T10:03:52.793Z,6.23
2023-01-21T10:06:38.535Z,6.45
2023-01-21T10:09:45.457Z,6.50
2023-01-21T10:12:36.763Z,6.55
2023-01-21T10:15:15.881Z,6.87
2023-01-21T10:17:58.054Z,7.41
2023-01-21T10:20:30.141Z,7.52
2023-01-21T10:23:13.499Z,8.97
2023-01-21T10:25:41.074Z,9.64
2023-01-21T10:28:20.972Z,10.51
2023-01-21T10:30:51.827Z,11.44
2023-01-21T10:33:25.094Z,12.08
2023-01-21T10:36:07.275Z,12.76
2023-01-21T10:38:40.915Z,11.98
2023-01-21T10:41:22.797Z,10.74
2023-01-21T10:43:58.539Z,9.12
2023-01-21T10:46:37.552Z,8.48
2023-01-21T10:49:36.653Z,7.72
2023-01-21T10:52:06.529Z,7.19
2023-01-21T10:54:45.187Z,6.61
2023-01-21T10:57:30.983Z,6.62
2023-01-21T11:00:02.457Z,6.38
2023-01-21T11:02:33.769Z,6.50
2023-01-21T11:05:03.925Z,6.62
2023-01-21T11:07:39.861Z,6.76
2023-01-21T11:10:07.701Z,6.76
2023-01-21T11:12:34.696Z,6.69
2023-01-21T11:15:07.696Z,6.64
2023-01-21T11:17:37.790Z,6.21
2023-01-21T11:20:16.977Z,6.15
2023-01-21T11:22:45.539Z,6.20
2023-01-21T11:25:26.381Z,6.37
2023-01-21T11:27:53.035Z,6.50
2023-01-21T11:30:51.999Z,6.25
2023-01-21T11:33:18.831Z,6.21
2023-01-21T11:35:46.072Z,5.89
2023-01-21T11:38:33.111Z,5.92
2023-01-21T11:41:16.091Z,6.01
2023-01-21T11:43:52.209Z,6.22
2023-01-21T11:46:30.227Z,6.48
2023-01-21T11:49:12.268Z,6.69
2023-01-21T11:51:41.095Z,6.57
2023-01-21T11:54:13.460Z,6.56
2023-01-21T11:56:45.363Z,6.80
2023-01-21T11:59:50.841Z,6.60
2023-01-21T12:02:31.178Z,6.72
2023-01-21T12:05:04.889Z,6.80
2023-01-21T12:07:35.232Z,7.26
2023-01-21T12:10:20.110Z,7.81
2023-01-21T12:13:14.201Z,7.89
2023-01-21T12:16:06.002Z,7.82
2023-01-21T12:18:54.617Z,7.90
2023-01-21T12:21:42.500Z,7.66
2023-01-21T12:24:34.213Z,8.00
2023-01-21T12:27:09.208Z,8.47
2023-01-21T12:29:48.538Z,8.59
2023-01-21T12:32:23.623Z,8.65
2023-01-21T12:35:08.230Z,8.66
2023-01-21T12:38:03.777Z,8.51
2023-01-21T12:40:40.078Z,8.50
2023-01-21T12:43:26.351Z,8.32
2023-01-21T12:46:03.398Z,8.12
2023-01-21T12:48:34.959Z,8.12
2023-01-21T12:51:08.197Z,8.28
2023-01-21T12:53:45.129Z,7.99
2023-01-21T12:56:18.018Z,8.27
2023-01-21T12:58:57.016Z,8.51
2023-01-21T13:01:41.653Z,8.52
2023-01-21T13:04:20.965Z,8.12
2023-01-21T13:06:56.125Z,8.27
2023-01-21T13:09:44.029Z,8.19
2023-01-21T13:12:26.235Z,7.86
2023-01-21T13:15:00.910Z,7.47
2023-01-21T13:17:35.387Z,7.33
2023-01-21T13:20:13.627Z,6.91
2023-01-21T13:22:47.206Z,6.72
2023-01-21T13:25:24.472Z,6.82
2023-01-21T13:27:51.042Z,6.53
2023-01-21T13:30:29.109Z,6.64
2023-01-21T13:33:17.085Z,6.62
2023-01-21T13:36:22.677Z,6.58
2023-01-21T13:39:10.004Z,6.62
2023-01-21T13:41:55.123Z,6.52
2023-01-21T13:44:54.592Z,6.45
2023-01-21T13:47:31.965Z,6.19
2023-01-21T13:50:17.955Z,6.18
2023-01-21T13:53:17.669Z,5.90
2023-01-21T13:56:02.939Z,5.72
2023-01-21T13:58:43.114Z,5.58
2023-01-21T14:01:18.750Z,5.67
2023-01-21T14:03:50.446Z,5.38
2023-01-21T14:06:26.915Z,5.49
2023-01-21T14:08:59.437Z,5.21
2023-01-21T14:11:33.318Z,5.04
2023-01-21T14:14:09.948Z,5.18
2023-01-21T14:16:48.808Z,5.07
2023-01-21T14:19:48.560Z,4.75
2023-01-21T14:22:36.583Z,4.84
2023-01-21T14:25:30.975Z,4.78
2023-01-21T14:28:06.428Z,4.81
2023-01-21T14:30:47.939Z,4.69
2023-01-21T14:33:23.552Z,4.83
2023-01-21T14:36:05.036Z,4.97
2023-01-21T14:38:40.711Z,4.94
2023-01-21T14:41:09.839Z,4.85
2023-01-21T14:43:36.603Z,4.87
2023-01-21T14:46:23.115Z,4.82
2023-01-21T14:48:58.409Z,4.83
2023-01-21T14:51:28.920Z,4.74
2023-01-21T14:54:13.026Z,4.84
2023-01-21T14:56:39.906Z,4.87
2023-01-21T14:59:25.580Z,4.95
2023-01-21T15:02:03.274Z,4.89
2023-01-21T15:04:40.241Z,4.65
2023-01-21T15:07:13.046Z,4.72
2023-01-21T15:09:43.983Z,4.62
2023-01-21T15:12:22.535Z,4.67
2023-01-21T15:14:50.020Z,4.54
2023-01-21T15:17:44.783Z,4.43
2023-01-21T15:20:44.746Z,4.49
2023-01-21T15:23:29.535Z,4.63
2023-01-21T15:26:03.153Z,4.65
2023-01-21T15:28:59.607Z,4.62
2023-01-21T15:31:26.248Z,4.71
2023-01-21T15:34:00.711Z,4.63
2023-01-21T15:36:27.504Z,4.73
2023-01-21T15:39:02.329Z,4.66
2023-01-21T15:41:38.528Z,4.71
2023-01-21T15:44:37.685Z,4.75
2023-01-21T15:47:29.431Z,4.71
2023-01-21T15:50:23.622Z,4.61
2023-01-21T15:53:06.722Z,4.70
2023-01-21T15:55:45.553Z,4.73
2023-01-21T15:59:00.652Z,4.79
2023-01-21T16:01:37.260Z,4.73
2023-01-21T16:04:40.806Z,4.66
2023-01-21T16:07:34.089Z,4.64
2023-01-21T16:10:17.906Z,4.63
2023-01-21T16:13:14.519Z,4.63
2023-01-21T16:15:49.962Z,4.52
2023-01-21T16:18:22.878Z,4.55
2023-01-21T16:20:53.254Z,4.52
2023-01-21T16:23:22.853Z,4.46
2023-01-21T16:25:52.703Z,4.45
2023-01-21T16:28:21.372Z,4.42
2023-01-21T16:31:06.201Z,4.49
2023-01-21T16:33:32.900Z,4.52
2023-01-21T16:36:05.826Z,4.55
2023-01-21T16:38:34.163Z,4.56
2023-01-21T16:41:06.889Z,4.61
2023-01-21T16:43:48.979Z,4.57
2023-01-21T16:46:18.291Z,4.60
2023-01-21T16:48:50.247Z,4.54
2023-01-21T16:51:23.648Z,4.52
2023-01-21T16:53:53.909Z,4.55
2023-01-21T16:56:29.389Z,4.56
2023-01-21T16:58:56.379Z,4.61
2023-01-21T17:01:26.422Z,4.65
2023-01-21T17:03:53.332Z,4.58
2023-01-21T17:06:25.791Z,4.58
2023-01-21T17:09:05.008Z,4.58
2023-01-21T17:11:32.869Z,4.60
2023-01-21T17:14:07.505Z,4.61
2023-01-21T17:16:36.875Z,4.59
2023-01-21T17:19:08.264Z,4.65
2023-01-21T17:21:44.062Z,4.67
2023-01-21T17:24:23.773Z,4.67
2023-01-21T17:26:54.026Z,4.63
2023-01-21T17:29:26.291Z,4.60
2023-01-21T17:32:26.835Z,4.65
2023-01-21T17:35:08.952Z,4.65
2023-01-21T17:37:55.227Z,4.71
2023-01-21T17:40:35.455Z,4.69
2023-01-21T17:43:30.121Z,4.72
2023-01-21T17:45:57.976Z,4.68
2023-01-21T17:48:48.864Z,4.70
2023-01-21T17:51:15.639Z,4.66
2023-01-21T17:53:49.512Z,4.59
2023-01-21T17:56:34.536Z,4.59
2023-01-21T17:59:04.121Z,4.51
2023-01-21T18:01:31.210Z,4.54
2023-01-21T18:03:57.928Z,4.56
2023-01-21T18:06:27.713Z,4.58
2023-01-21T18:08:57.038Z,4.54
2023-01-21T18:11:23.786Z,4.51
2023-01-21T18:13:51.346Z,4.56
2023-01-21T18:16:18.123Z,4.53
2023-01-21T18:18:45.091Z,4.59
2023-01-21T18:21:18.891Z,4.62
2023-01-21T18:23:46.355Z,4.65
2023-01-21T18:26:26.346Z,4.65
2023-01-21T18:28:53.175Z,4.72
2023-01-21T18:31:20.141Z,4.75
2023-01-21T18:33:46.916Z,4.76
2023-01-21T18:36:13.537Z,4.60
2023-01-21T18:38:40.245Z,4.75
2023-01-21T18:41:08.860Z,4.57
2023-01-21T18:43:35.640Z,4.55
2023-01-21T18:46:02.514Z,4.57
2023-01-21T18:48:31.046Z,4.59
2023-01-21T18:50:57.741Z,4.59
2023-01-21T18:53:25.557Z,4.56
2023-01-21T18:55:55.833Z,4.61
2023-01-21T18:58:22.577Z,4.67
2023-01-21T19:00:49.581Z,4.64
2023-01-21T19:03:16.604Z,4.54
2023-01-21T19:05:47.555Z,4.63
2023-01-21T19:08:21.600Z,4.70
2023-01-21T19:10:48.218Z,4.71
2023-01-21T19:13:14.853Z,4.68
2023-01-21T19:15:41.893Z,4.55
2023-01-21T19:18:13.418Z,4.56
2023-01-21T19:20:41.520Z,4.53
2023-01-21T19:23:15.581Z,4.56
2023-01-21T19:25:46.758Z,4.59
2023-01-21T19:28:13.387Z,4.61
2023-01-21T19:30:44.966Z,4.60
2023-01-21T19:33:12.371Z,4.57
2023-01-21T19:35:42.538Z,4.51
2023-01-21T19:38:16.147Z,4.56
2023-01-21T19:40:42.965Z,4.50
2023-01-21T19:43:14.731Z,4.58
2023-01-21T19:45:41.878Z,4.71
2023-01-21T19:48:17.388Z,4.69
2023-01-21T19:50:44.325Z,4.72
2023-01-21T19:53:15.245Z,4.69
2023-01-21T19:55:43.523Z,4.61
2023-01-21T19:58:15.632Z,4.55
2023-01-21T20:00:42.262Z,4.48
2023-01-21T20:03:12.765Z,4.43
2023-01-21T20:05:39.882Z,4.43
2023-01-21T20:08:09.409Z,4.39
2023-01-21T20:10:36.168Z,4.38
2023-01-21T20:13:02.829Z,4.38
2023-01-21T20:15:34.207Z,4.39
2023-01-21T20:18:03.231Z,4.41
2023-01-21T20:20:33.435Z,4.45
2023-01-21T20:23:01.165Z,4.52
2023-01-21T20:25:37.230Z,4.50
2023-01-21T20:28:14.705Z,4.46
2023-01-21T20:30:41.367Z,4.40
2023-01-21T20:33:13.648Z,4.31
2023-01-21T20:35:40.621Z,4.32
2023-01-21T20:38:13.249Z,4.30
2023-01-21T20:40:40.285Z,4.27
2023-01-21T20:43:07.403Z,4.27
2023-01-21T20:45:48.722Z,4.28
2023-01-21T20:48:18.750Z,4.25
2023-01-21T20:50:46.353Z,4.25
2023-01-21T20:53:13.063Z,4.24
2023-01-21T20:55:40.578Z,4.22
2023-01-21T20:58:07.460Z,4.20
2023-01-21T21:00:35.006Z,4.25
2023-01-21T21:03:02.383Z,4.25
2023-01-21T21:05:29.178Z,4.23
2023-01-21T21:07:55.861Z,4.26
2023-01-21T21:10:30.813Z,4.24
2023-01-21T21:12:58.805Z,4.25
2023-01-21T21:15:33.876Z,4.23
2023-01-21T21:18:01.311Z,4.26
2023-01-21T21:20:34.124Z,4.28
2023-01-21T21:23:01.362Z,4.34
2023-01-21T21:25:30.327Z,4.34
2023-01-21T21:27:57.059Z,4.37
2023-01-21T21:30:27.579Z,4.38
2023-01-21T21:32:56.573Z,4.36
2023-01-21T21:35:27.365Z,4.39
2023-01-21T21:37:55.960Z,4.38
2023-01-21T21:40:25.027Z,4.37
2023-01-21T21:43:10.297Z,4.32
2023-01-21T21:45:37.515Z,4.36
2023-01-21T21:48:23.462Z,4.35
2023-01-21T21:50:57.528Z,4.34
2023-01-21T21:53:24.366Z,4.33
2023-01-21T21:55:51.034Z,4.29
2023-01-21T21:58:17.766Z,4.27
2023-01-21T22:00:44.744Z,4.26
2023-01-21T22:03:12.570Z,4.22
2023-01-21T22:05:39.202Z,4.19
2023-01-21T22:08:06.344Z,4.12
2023-01-21T22:10:32.972Z,4.03
2023-01-21T22:12:59.613Z,3.99
2023-01-21T22:15:26.213Z,4.08
2023-01-21T22:17:52.820Z,4.08
2023-01-21T22:20:19.551Z,4.05
2023-01-21T22:22:46.156Z,4.04
2023-01-21T22:25:13.203Z,4.04
2023-01-21T22:27:39.844Z,4.11
2023-01-21T22:30:07.093Z,4.10
2023-01-21T22:32:33.700Z,4.08
2023-01-21T22:35:00.325Z,4.07
2023-01-21T22:37:26.952Z,4.03
2023-01-21T22:39:53.683Z,3.89
2023-01-21T22:42:20.444Z,3.78
2023-01-21T22:44:47.144Z,3.82
2023-01-21T22:47:13.753Z,3.85
2023-01-21T22:49:40.495Z,3.88
2023-01-21T22:52:07.412Z,3.75
2023-01-21T22:54:34.168Z,3.84
2023-01-21T22:57:00.829Z,3.78
2023-01-21T22:59:27.436Z,3.76
2023-01-21T23:01:54.215Z,3.78
2023-01-21T23:04:20.843Z,3.76
2023-01-21T23:06:48.631Z,3.81
2023-01-21T23:09:18.335Z,3.84
2023-01-21T23:11:45.134Z,3.86
2023-01-21T23:14:12.021Z,3.81
2023-01-21T23:16:39.218Z,3.85
2023-01-21T23:19:05.905Z,3.83
2023-01-21T23:21:32.987Z,3.91
2023-01-21T23:23:59.634Z,3.93
2023-01-21T23:26:26.270Z,3.89
2023-01-21T23:28:57.495Z,3.88
2023-01-21T23:31:25.082Z,3.89
2023-01-21T23:33:53.098Z,3.87
2023-01-21T23:36:20.258Z,3.87
2023-01-21T23:38:46.934Z,3.90
2023-01-21T23:41:16.981Z,3.83
2023-01-21T23:43:43.810Z,3.84
2023-01-21T23:46:16.548Z,3.79
2023-01-21T23:48:43.503Z,3.79
2023-01-21T23:51:12.733Z,3.82
2023-01-21T23:53:39.731Z,3.89
2023-01-21T23:56:10.422Z,3.80
2023-01-21T23:58:37.147Z,3.85
